Página principal
METAR-TAF:

METAR-TAF

Aeroportos :

Cap Skirring, Senegal

latitude: 12-24N, longitude: 016-45W, altura: 16 m

Observação actual do tempo

O boletim foi feito há 1 hora e 57 minutos, às 04:00 UTC
Vento 4 kt de noroeste
Temperatura 28°C
Humidade 84%
Pressão 1011 hPa
Visibilidade 10 km ou mais
sem nuvens abaixo de 1500 metros e sem cumulonimbus

METAR: GOGS 230400Z 32004KT CAVOK 28/25 Q1011

Hora: 05:57 (05:57 UTC)

Previsão

O boletim foi feito há 57 minutos, às 05:00 UTC
Previsão válida de 23 às 06 UTC a 24 às 06 UTC
Vento 5 kt de oes-noroeste
Visibilidade 10 km ou mais
sem nuvens abaixo de 1500 metros e sem cumulonimbus

TAF: GOGS 230500Z 2306/2406 30005KT CAVOK

Observações e previsões do tempo de mais de 4000 aeroportos (mensagens METAR e TAF).

As estações disponíveis são os pontos amarelos e vermelhos sobre o mapa.

Mova o rato sobre o mapa para ver o nome da estação.

Depois clique no ponto para visualizar as observações e previsões meteorológicas.

Para alterar o mapa : clique nos botões verdes com uma cruz preta para aumentar o zoom; no botão verde com uma pitada de zoom; ou nas setas verdes para mapas adjacentes.


METAR-TAF: